Afton, Oklahoma
Current Conditions -  °F | °C
As of 4:55 AM on Wednesday 26 Nov 2014 (Local Time) from KGMJ Reporting Station
Scattered Clouds Scattered Clouds  
Wind Chill: 43°   Ceiling: Unl
Heat Index: 43°   Visibility: 10mi
Dew Point: 27°   Wind: 3mph
Humidity: 53%   Direction: 180°S
Pressure: 29.97"   Gusts: NA
Location:  36.69°N, 94.96°W
Report Text: KGMJ 261055Z AUTO 18003KT 10SM SCT110 06/M03 A2997 RMK AO2
Loading
Personal Weather Stations






























Interactive Weather Map New forecast layout! Learn more

10-Day Weather Forecast

Advertisements
Track Severe Weather on mobile